Terminal Aerodrome Forecast
Issued by NWS

Home | Current Version | Previous Version | Text Only | Print | Product List | Glossary Off
Versions: 1 2 3 4 5 6 7 8 9 10 11 12 13 14 15

747
FTUS43 KPAH 011120
TAFCGI
TAF
KCGI 011120Z 0112/0212 VRB05KT P6SM SCT015 BKN100
      TEMPO 0112/0115 BKN015
     FM011500 24005KT P6SM SCT025 SCT100
     FM020300 32005KT P6SM FEW150=

USA.gov is the U.S. government's official web portal to all federal, state and local government web resources and services.